sensor_id;sensor_type;location;lat;lon;timestamp;P1;durP1;ratioP1;P2;durP2;ratioP2
17566;SDS011;8901;52.088;5.084;2022-08-03T00:01:00;6.38;;;1.73;;
17566;SDS011;8901;52.088;5.084;2022-08-03T00:03:28;5.30;;;1.95;;
17566;SDS011;8901;52.088;5.084;2022-08-03T00:05:55;4.75;;;1.95;;
17566;SDS011;8901;52.088;5.084;2022-08-03T00:08:22;7.82;;;1.90;;
17566;SDS011;8901;52.088;5.084;2022-08-03T00:10:49;7.30;;;1.83;;
17566;SDS011;8901;52.088;5.084;2022-08-03T00:13:16;6.22;;;2.10;;
17566;SDS011;8901;52.088;5.084;2022-08-03T00:15:43;4.72;;;1.83;;
17566;SDS011;8901;52.088;5.084;2022-08-03T00:18:11;6.22;;;1.98;;
17566;SDS011;8901;52.088;5.084;2022-08-03T00:20:39;4.28;;;1.90;;
17566;SDS011;8901;52.088;5.084;2022-08-03T00:23:06;8.45;;;2.30;;
17566;SDS011;8901;52.088;5.084;2022-08-03T00:25:33;6.53;;;2.45;;
17566;SDS011;8901;52.088;5.084;2022-08-03T00:28:00;4.28;;;1.85;;
17566;SDS011;8901;52.088;5.084;2022-08-03T00:30:27;5.32;;;1.70;;
17566;SDS011;8901;52.088;5.084;2022-08-03T00:32:54;7.90;;;2.20;;
17566;SDS011;8901;52.088;5.084;2022-08-03T00:35:21;4.80;;;1.92;;
17566;SDS011;8901;52.088;5.084;2022-08-03T00:37:49;5.28;;;1.63;;
17566;SDS011;8901;52.088;5.084;2022-08-03T00:40:17;3.58;;;1.85;;
17566;SDS011;8901;52.088;5.084;2022-08-03T00:42:48;6.22;;;2.22;;
17566;SDS011;8901;52.088;5.084;2022-08-03T00:45:17;7.35;;;1.90;;
17566;SDS011;8901;52.088;5.084;2022-08-03T00:47:45;9.63;;;2.13;;
17566;SDS011;8901;52.088;5.084;2022-08-03T00:50:12;6.38;;;2.22;;
17566;SDS011;8901;52.088;5.084;2022-08-03T00:52:39;4.30;;;2.10;;
17566;SDS011;8901;52.088;5.084;2022-08-03T00:55:08;5.30;;;2.00;;
17566;SDS011;8901;52.088;5.084;2022-08-03T00:57:35;8.07;;;2.00;;
17566;SDS011;8901;52.088;5.084;2022-08-03T01:00:06;9.07;;;2.00;;
17566;SDS011;8901;52.088;5.084;2022-08-03T01:02:35;5.32;;;2.13;;
17566;SDS011;8901;52.088;5.084;2022-08-03T01:05:02;7.07;;;2.10;;
17566;SDS011;8901;52.088;5.084;2022-08-03T01:07:34;5.65;;;1.90;;
17566;SDS011;8901;52.088;5.084;2022-08-03T01:10:12;5.82;;;1.95;;
17566;SDS011;8901;52.088;5.084;2022-08-03T01:12:47;7.45;;;2.00;;
17566;SDS011;8901;52.088;5.084;2022-08-03T01:15:27;8.82;;;2.10;;
17566;SDS011;8901;52.088;5.084;2022-08-03T01:18:02;5.85;;;1.80;;
17566;SDS011;8901;52.088;5.084;2022-08-03T01:20:35;5.25;;;2.30;;
17566;SDS011;8901;52.088;5.084;2022-08-03T01:23:09;7.15;;;2.67;;
17566;SDS011;8901;52.088;5.084;2022-08-03T01:26:24;8.13;;;2.75;;
17566;SDS011;8901;52.088;5.084;2022-08-03T01:29:13;6.55;;;2.20;;
17566;SDS011;8901;52.088;5.084;2022-08-03T01:32:08;6.22;;;2.03;;
17566;SDS011;8901;52.088;5.084;2022-08-03T01:34:40;5.38;;;2.35;;
17566;SDS011;8901;52.088;5.084;2022-08-03T01:37:10;8.73;;;2.53;;
17566;SDS011;8901;52.088;5.084;2022-08-03T01:39:41;8.40;;;2.45;;
17566;SDS011;8901;52.088;5.084;2022-08-03T01:42:09;7.55;;;2.55;;
17566;SDS011;8901;52.088;5.084;2022-08-03T01:44:39;8.82;;;2.63;;
17566;SDS011;8901;52.088;5.084;2022-08-03T01:47:09;9.65;;;2.58;;
17566;SDS011;8901;52.088;5.084;2022-08-03T01:49:38;3.33;;;1.92;;
17566;SDS011;8901;52.088;5.084;2022-08-03T01:52:08;9.38;;;3.03;;
17566;SDS011;8901;52.088;5.084;2022-08-03T01:54:36;8.23;;;2.67;;
17566;SDS011;8901;52.088;5.084;2022-08-03T01:57:08;6.50;;;2.28;;
17566;SDS011;8901;52.088;5.084;2022-08-03T01:59:35;7.95;;;2.63;;
17566;SDS011;8901;52.088;5.084;2022-08-03T02:02:03;7.50;;;2.60;;
17566;SDS011;8901;52.088;5.084;2022-08-03T02:04:33;7.50;;;2.70;;
17566;SDS011;8901;52.088;5.084;2022-08-03T02:07:03;8.40;;;2.63;;
17566;SDS011;8901;52.088;5.084;2022-08-03T02:09:31;6.20;;;2.53;;
17566;SDS011;8901;52.088;5.084;2022-08-03T02:11:59;6.38;;;2.60;;
17566;SDS011;8901;52.088;5.084;2022-08-03T02:14:27;8.93;;;2.65;;
17566;SDS011;8901;52.088;5.084;2022-08-03T02:16:56;7.68;;;2.53;;
17566;SDS011;8901;52.088;5.084;2022-08-03T02:19:24;6.18;;;2.78;;
17566;SDS011;8901;52.088;5.084;2022-08-03T02:21:54;8.00;;;2.63;;
17566;SDS011;8901;52.088;5.084;2022-08-03T02:24:22;6.45;;;3.03;;
17566;SDS011;8901;52.088;5.084;2022-08-03T02:26:49;11.05;;;2.83;;
17566;SDS011;8901;52.088;5.084;2022-08-03T02:29:19;5.95;;;2.50;;
17566;SDS011;8901;52.088;5.084;2022-08-03T02:31:48;6.55;;;2.47;;
17566;SDS011;8901;52.088;5.084;2022-08-03T02:34:17;8.63;;;2.90;;
17566;SDS011;8901;52.088;5.084;2022-08-03T02:36:48;10.65;;;3.35;;
17566;SDS011;8901;52.088;5.084;2022-08-03T02:39:19;6.60;;;2.58;;
17566;SDS011;8901;52.088;5.084;2022-08-03T02:41:50;3.80;;;2.22;;
17566;SDS011;8901;52.088;5.084;2022-08-03T02:44:26;6.40;;;2.42;;
17566;SDS011;8901;52.088;5.084;2022-08-03T02:46:54;8.30;;;2.63;;
17566;SDS011;8901;52.088;5.084;2022-08-03T02:49:24;10.10;;;2.60;;
17566;SDS011;8901;52.088;5.084;2022-08-03T02:51:52;11.85;;;3.25;;
17566;SDS011;8901;52.088;5.084;2022-08-03T02:54:22;10.65;;;2.80;;
17566;SDS011;8901;52.088;5.084;2022-08-03T02:56:50;8.00;;;2.78;;
17566;SDS011;8901;52.088;5.084;2022-08-03T02:59:19;7.18;;;2.70;;
17566;SDS011;8901;52.088;5.084;2022-08-03T03:01:47;8.75;;;2.85;;
17566;SDS011;8901;52.088;5.084;2022-08-03T03:04:15;7.82;;;2.95;;
17566;SDS011;8901;52.088;5.084;2022-08-03T03:06:42;9.52;;;2.78;;
17566;SDS011;8901;52.088;5.084;2022-08-03T03:09:10;7.50;;;2.80;;
17566;SDS011;8901;52.088;5.084;2022-08-03T03:11:39;8.38;;;3.00;;
17566;SDS011;8901;52.088;5.084;2022-08-03T03:14:07;6.70;;;2.70;;
17566;SDS011;8901;52.088;5.084;2022-08-03T03:16:37;7.07;;;2.78;;
17566;SDS011;8901;52.088;5.084;2022-08-03T03:19:05;6.68;;;2.63;;
17566;SDS011;8901;52.088;5.084;2022-08-03T03:21:33;13.05;;;3.10;;
17566;SDS011;8901;52.088;5.084;2022-08-03T03:24:02;10.82;;;3.00;;
17566;SDS011;8901;52.088;5.084;2022-08-03T03:26:30;6.88;;;2.95;;
17566;SDS011;8901;52.088;5.084;2022-08-03T03:29:00;10.07;;;3.10;;
17566;SDS011;8901;52.088;5.084;2022-08-03T03:31:27;9.88;;;4.00;;
17566;SDS011;8901;52.088;5.084;2022-08-03T03:33:55;9.07;;;2.60;;
17566;SDS011;8901;52.088;5.084;2022-08-03T03:36:23;7.35;;;3.33;;
17566;SDS011;8901;52.088;5.084;2022-08-03T03:38:50;11.35;;;2.75;;
17566;SDS011;8901;52.088;5.084;2022-08-03T03:41:17;8.32;;;3.30;;
17566;SDS011;8901;52.088;5.084;2022-08-03T03:43:43;9.55;;;3.30;;
17566;SDS011;8901;52.088;5.084;2022-08-03T03:46:12;8.18;;;3.03;;
17566;SDS011;8901;52.088;5.084;2022-08-03T03:48:39;9.02;;;3.58;;
17566;SDS011;8901;52.088;5.084;2022-08-03T03:51:06;8.30;;;3.13;;
17566;SDS011;8901;52.088;5.084;2022-08-03T03:53:34;9.70;;;3.42;;
17566;SDS011;8901;52.088;5.084;2022-08-03T03:56:01;11.05;;;3.50;;
17566;SDS011;8901;52.088;5.084;2022-08-03T03:58:29;8.40;;;3.20;;
17566;SDS011;8901;52.088;5.084;2022-08-03T04:00:57;9.35;;;3.30;;
17566;SDS011;8901;52.088;5.084;2022-08-03T04:03:25;8.45;;;3.33;;
17566;SDS011;8901;52.088;5.084;2022-08-03T04:05:52;11.98;;;3.42;;
17566;SDS011;8901;52.088;5.084;2022-08-03T04:08:37;10.88;;;3.05;;
17566;SDS011;8901;52.088;5.084;2022-08-03T04:11:23;12.25;;;3.72;;
17566;SDS011;8901;52.088;5.084;2022-08-03T04:13:53;11.50;;;3.83;;
17566;SDS011;8901;52.088;5.084;2022-08-03T04:16:25;7.70;;;2.83;;
17566;SDS011;8901;52.088;5.084;2022-08-03T04:18:59;8.38;;;3.05;;
17566;SDS011;8901;52.088;5.084;2022-08-03T04:21:31;8.10;;;3.80;;
17566;SDS011;8901;52.088;5.084;2022-08-03T04:24:00;10.68;;;3.40;;
17566;SDS011;8901;52.088;5.084;2022-08-03T04:26:33;5.90;;;3.38;;
17566;SDS011;8901;52.088;5.084;2022-08-03T04:29:03;7.00;;;3.25;;
17566;SDS011;8901;52.088;5.084;2022-08-03T04:31:31;8.02;;;2.97;;
17566;SDS011;8901;52.088;5.084;2022-08-03T04:34:00;13.25;;;3.35;;
17566;SDS011;8901;52.088;5.084;2022-08-03T04:36:30;7.85;;;3.55;;
17566;SDS011;8901;52.088;5.084;2022-08-03T04:38:59;6.70;;;2.67;;
17566;SDS011;8901;52.088;5.084;2022-08-03T04:41:33;8.07;;;3.33;;
17566;SDS011;8901;52.088;5.084;2022-08-03T04:44:01;13.60;;;3.10;;
17566;SDS011;8901;52.088;5.084;2022-08-03T04:46:31;15.05;;;3.90;;
17566;SDS011;8901;52.088;5.084;2022-08-03T04:49:02;9.60;;;3.60;;
17566;SDS011;8901;52.088;5.084;2022-08-03T04:51:30;9.95;;;3.15;;
17566;SDS011;8901;52.088;5.084;2022-08-03T04:54:02;7.25;;;3.10;;
17566;SDS011;8901;52.088;5.084;2022-08-03T04:56:31;9.70;;;3.45;;
17566;SDS011;8901;52.088;5.084;2022-08-03T04:58:58;7.55;;;3.22;;
17566;SDS011;8901;52.088;5.084;2022-08-03T05:01:25;10.23;;;3.35;;
17566;SDS011;8901;52.088;5.084;2022-08-03T05:03:51;14.57;;;3.58;;
17566;SDS011;8901;52.088;5.084;2022-08-03T05:06:19;11.02;;;3.22;;
17566;SDS011;8901;52.088;5.084;2022-08-03T05:08:46;6.15;;;2.78;;
17566;SDS011;8901;52.088;5.084;2022-08-03T05:11:13;11.98;;;3.72;;
17566;SDS011;8901;52.088;5.084;2022-08-03T05:13:40;15.98;;;3.50;;
17566;SDS011;8901;52.088;5.084;2022-08-03T05:16:07;11.32;;;3.45;;
17566;SDS011;8901;52.088;5.084;2022-08-03T05:18:34;8.75;;;3.03;;
17566;SDS011;8901;52.088;5.084;2022-08-03T05:21:01;10.50;;;3.50;;
17566;SDS011;8901;52.088;5.084;2022-08-03T05:23:30;12.73;;;4.05;;
17566;SDS011;8901;52.088;5.084;2022-08-03T05:25:57;10.18;;;4.25;;
17566;SDS011;8901;52.088;5.084;2022-08-03T05:28:24;11.25;;;3.90;;
17566;SDS011;8901;52.088;5.084;2022-08-03T05:30:50;10.63;;;3.33;;
17566;SDS011;8901;52.088;5.084;2022-08-03T05:33:17;11.30;;;4.20;;
17566;SDS011;8901;52.088;5.084;2022-08-03T05:35:44;11.95;;;4.00;;
17566;SDS011;8901;52.088;5.084;2022-08-03T05:38:11;11.85;;;3.83;;
17566;SDS011;8901;52.088;5.084;2022-08-03T05:40:39;12.90;;;4.07;;
17566;SDS011;8901;52.088;5.084;2022-08-03T05:43:06;13.02;;;3.58;;
17566;SDS011;8901;52.088;5.084;2022-08-03T05:45:33;14.15;;;5.13;;
17566;SDS011;8901;52.088;5.084;2022-08-03T05:48:01;11.15;;;4.32;;
17566;SDS011;8901;52.088;5.084;2022-08-03T05:50:28;13.50;;;4.15;;
17566;SDS011;8901;52.088;5.084;2022-08-03T05:52:55;11.98;;;4.03;;
17566;SDS011;8901;52.088;5.084;2022-08-03T05:55:22;14.60;;;4.15;;
17566;SDS011;8901;52.088;5.084;2022-08-03T05:57:51;12.25;;;4.18;;
17566;SDS011;8901;52.088;5.084;2022-08-03T06:00:17;14.52;;;4.00;;
17566;SDS011;8901;52.088;5.084;2022-08-03T06:02:44;11.20;;;3.92;;
17566;SDS011;8901;52.088;5.084;2022-08-03T06:05:11;11.73;;;3.50;;
17566;SDS011;8901;52.088;5.084;2022-08-03T06:07:38;11.32;;;3.72;;
17566;SDS011;8901;52.088;5.084;2022-08-03T06:10:06;9.98;;;3.35;;
17566;SDS011;8901;52.088;5.084;2022-08-03T06:12:34;13.98;;;3.92;;
17566;SDS011;8901;52.088;5.084;2022-08-03T06:15:02;11.23;;;3.72;;
17566;SDS011;8901;52.088;5.084;2022-08-03T06:17:30;10.68;;;3.83;;
17566;SDS011;8901;52.088;5.084;2022-08-03T06:19:57;11.02;;;3.95;;
17566;SDS011;8901;52.088;5.084;2022-08-03T06:22:24;12.40;;;4.30;;
17566;SDS011;8901;52.088;5.084;2022-08-03T06:24:51;18.45;;;4.72;;
17566;SDS011;8901;52.088;5.084;2022-08-03T06:27:18;13.13;;;4.25;;
17566;SDS011;8901;52.088;5.084;2022-08-03T06:29:44;13.23;;;4.68;;
17566;SDS011;8901;52.088;5.084;2022-08-03T06:32:13;14.27;;;4.57;;
17566;SDS011;8901;52.088;5.084;2022-08-03T06:34:40;14.38;;;4.40;;
17566;SDS011;8901;52.088;5.084;2022-08-03T06:37:07;10.13;;;4.78;;
17566;SDS011;8901;52.088;5.084;2022-08-03T06:39:34;14.55;;;5.15;;
17566;SDS011;8901;52.088;5.084;2022-08-03T06:42:01;17.70;;;4.72;;
17566;SDS011;8901;52.088;5.084;2022-08-03T06:44:28;15.98;;;4.30;;
17566;SDS011;8901;52.088;5.084;2022-08-03T06:46:55;12.45;;;5.05;;
17566;SDS011;8901;52.088;5.084;2022-08-03T06:49:24;13.70;;;4.95;;
17566;SDS011;8901;52.088;5.084;2022-08-03T06:51:50;16.55;;;4.68;;
17566;SDS011;8901;52.088;5.084;2022-08-03T06:54:18;11.65;;;4.57;;
17566;SDS011;8901;52.088;5.084;2022-08-03T06:56:46;10.27;;;4.65;;
17566;SDS011;8901;52.088;5.084;2022-08-03T06:59:12;10.32;;;4.43;;
17566;SDS011;8901;52.088;5.084;2022-08-03T07:01:39;12.80;;;4.43;;
17566;SDS011;8901;52.088;5.084;2022-08-03T07:04:06;8.80;;;4.53;;
17566;SDS011;8901;52.088;5.084;2022-08-03T07:06:34;9.75;;;4.47;;
17566;SDS011;8901;52.088;5.084;2022-08-03T07:09:03;15.07;;;4.75;;
17566;SDS011;8901;52.088;5.084;2022-08-03T07:11:30;13.23;;;4.45;;
17566;SDS011;8901;52.088;5.084;2022-08-03T07:13:57;11.82;;;4.78;;
17566;SDS011;8901;52.088;5.084;2022-08-03T07:16:24;14.82;;;4.68;;
17566;SDS011;8901;52.088;5.084;2022-08-03T07:18:51;12.40;;;4.22;;
17566;SDS011;8901;52.088;5.084;2022-08-03T07:21:17;8.30;;;3.88;;
17566;SDS011;8901;52.088;5.084;2022-08-03T07:23:46;15.02;;;4.57;;
17566;SDS011;8901;52.088;5.084;2022-08-03T07:26:12;9.13;;;4.38;;
17566;SDS011;8901;52.088;5.084;2022-08-03T07:28:39;13.95;;;4.38;;
17566;SDS011;8901;52.088;5.084;2022-08-03T07:31:06;12.55;;;4.78;;
17566;SDS011;8901;52.088;5.084;2022-08-03T07:33:33;14.63;;;4.40;;
17566;SDS011;8901;52.088;5.084;2022-08-03T07:36:00;17.00;;;4.18;;
17566;SDS011;8901;52.088;5.084;2022-08-03T07:38:26;16.63;;;5.18;;
17566;SDS011;8901;52.088;5.084;2022-08-03T07:40:55;18.05;;;5.93;;
17566;SDS011;8901;52.088;5.084;2022-08-03T07:43:22;15.27;;;5.00;;
17566;SDS011;8901;52.088;5.084;2022-08-03T07:45:49;18.85;;;4.78;;
17566;SDS011;8901;52.088;5.084;2022-08-03T07:48:16;23.58;;;6.35;;
17566;SDS011;8901;52.088;5.084;2022-08-03T07:50:42;17.00;;;5.50;;
17566;SDS011;8901;52.088;5.084;2022-08-03T07:53:10;12.77;;;4.55;;
17566;SDS011;8901;52.088;5.084;2022-08-03T07:55:37;12.77;;;4.60;;
17566;SDS011;8901;52.088;5.084;2022-08-03T07:58:06;16.45;;;4.50;;
17566;SDS011;8901;52.088;5.084;2022-08-03T08:00:36;13.65;;;4.78;;
17566;SDS011;8901;52.088;5.084;2022-08-03T08:03:04;18.60;;;5.22;;
17566;SDS011;8901;52.088;5.084;2022-08-03T08:05:30;9.20;;;4.35;;
17566;SDS011;8901;52.088;5.084;2022-08-03T08:07:57;11.50;;;4.53;;
17566;SDS011;8901;52.088;5.084;2022-08-03T08:10:24;14.27;;;4.63;;
17566;SDS011;8901;52.088;5.084;2022-08-03T08:12:52;9.80;;;4.10;;
17566;SDS011;8901;52.088;5.084;2022-08-03T08:15:20;13.80;;;4.50;;
17566;SDS011;8901;52.088;5.084;2022-08-03T08:17:47;8.07;;;4.20;;
17566;SDS011;8901;52.088;5.084;2022-08-03T08:20:16;15.98;;;5.65;;
17566;SDS011;8901;52.088;5.084;2022-08-03T08:22:48;9.85;;;4.72;;
17566;SDS011;8901;52.088;5.084;2022-08-03T08:25:15;11.98;;;5.10;;
17566;SDS011;8901;52.088;5.084;2022-08-03T08:27:43;14.20;;;5.57;;
17566;SDS011;8901;52.088;5.084;2022-08-03T08:30:11;15.85;;;5.80;;
17566;SDS011;8901;52.088;5.084;2022-08-03T08:32:40;16.35;;;5.22;;
17566;SDS011;8901;52.088;5.084;2022-08-03T08:35:08;19.45;;;5.90;;
17566;SDS011;8901;52.088;5.084;2022-08-03T08:37:36;23.50;;;5.57;;
17566;SDS011;8901;52.088;5.084;2022-08-03T08:40:03;17.17;;;5.70;;
17566;SDS011;8901;52.088;5.084;2022-08-03T08:42:31;16.45;;;6.18;;
17566;SDS011;8901;52.088;5.084;2022-08-03T08:44:58;15.52;;;6.10;;
17566;SDS011;8901;52.088;5.084;2022-08-03T08:47:28;13.57;;;5.80;;
17566;SDS011;8901;52.088;5.084;2022-08-03T08:49:58;14.57;;;6.60;;
17566;SDS011;8901;52.088;5.084;2022-08-03T08:52:27;11.82;;;6.47;;
17566;SDS011;8901;52.088;5.084;2022-08-03T08:54:55;16.25;;;6.15;;
17566;SDS011;8901;52.088;5.084;2022-08-03T08:57:28;18.77;;;6.50;;
17566;SDS011;8901;52.088;5.084;2022-08-03T08:59:56;15.20;;;6.97;;
17566;SDS011;8901;52.088;5.084;2022-08-03T09:02:24;14.82;;;7.30;;
17566;SDS011;8901;52.088;5.084;2022-08-03T09:04:54;15.63;;;6.75;;
17566;SDS011;8901;52.088;5.084;2022-08-03T09:07:23;18.30;;;6.75;;
17566;SDS011;8901;52.088;5.084;2022-08-03T09:09:50;17.25;;;6.60;;
17566;SDS011;8901;52.088;5.084;2022-08-03T09:12:17;17.60;;;7.30;;
17566;SDS011;8901;52.088;5.084;2022-08-03T09:14:44;15.07;;;6.97;;
17566;SDS011;8901;52.088;5.084;2022-08-03T09:17:11;15.32;;;7.32;;
17566;SDS011;8901;52.088;5.084;2022-08-03T09:19:38;12.77;;;6.63;;
17566;SDS011;8901;52.088;5.084;2022-08-03T09:22:07;13.93;;;7.43;;
17566;SDS011;8901;52.088;5.084;2022-08-03T09:24:36;16.00;;;6.93;;
17566;SDS011;8901;52.088;5.084;2022-08-03T09:27:05;19.40;;;7.65;;
17566;SDS011;8901;52.088;5.084;2022-08-03T09:29:37;14.60;;;7.07;;
17566;SDS011;8901;52.088;5.084;2022-08-03T09:32:04;12.90;;;6.97;;
17566;SDS011;8901;52.088;5.084;2022-08-03T09:34:31;17.48;;;6.60;;
17566;SDS011;8901;52.088;5.084;2022-08-03T09:36:58;10.43;;;6.25;;
17566;SDS011;8901;52.088;5.084;2022-08-03T09:39:25;11.55;;;6.53;;
17566;SDS011;8901;52.088;5.084;2022-08-03T09:42:07;13.45;;;7.25;;
17566;SDS011;8901;52.088;5.084;2022-08-03T09:44:36;13.38;;;6.72;;
17566;SDS011;8901;52.088;5.084;2022-08-03T09:47:06;17.10;;;7.10;;
17566;SDS011;8901;52.088;5.084;2022-08-03T09:49:34;12.80;;;6.85;;
17566;SDS011;8901;52.088;5.084;2022-08-03T09:52:10;16.45;;;6.90;;
17566;SDS011;8901;52.088;5.084;2022-08-03T09:54:38;12.75;;;6.55;;
17566;SDS011;8901;52.088;5.084;2022-08-03T09:57:08;17.80;;;6.50;;
17566;SDS011;8901;52.088;5.084;2022-08-03T09:59:47;11.02;;;6.47;;
17566;SDS011;8901;52.088;5.084;2022-08-03T10:02:20;13.45;;;6.45;;
17566;SDS011;8901;52.088;5.084;2022-08-03T10:04:49;15.55;;;6.60;;
17566;SDS011;8901;52.088;5.084;2022-08-03T10:07:17;11.93;;;6.20;;
17566;SDS011;8901;52.088;5.084;2022-08-03T10:09:52;12.68;;;6.15;;
17566;SDS011;8901;52.088;5.084;2022-08-03T10:12:22;12.90;;;6.70;;
17566;SDS011;8901;52.088;5.084;2022-08-03T10:14:49;12.25;;;7.03;;
17566;SDS011;8901;52.088;5.084;2022-08-03T10:17:17;11.73;;;6.55;;
17566;SDS011;8901;52.088;5.084;2022-08-03T10:19:44;16.10;;;7.10;;
17566;SDS011;8901;52.088;5.084;2022-08-03T10:22:12;10.68;;;6.10;;
17566;SDS011;8901;52.088;5.084;2022-08-03T10:24:44;13.00;;;6.82;;
17566;SDS011;8901;52.088;5.084;2022-08-03T10:27:17;16.02;;;6.93;;
17566;SDS011;8901;52.088;5.084;2022-08-03T10:29:49;14.63;;;7.93;;
17566;SDS011;8901;52.088;5.084;2022-08-03T10:32:20;15.57;;;8.35;;
17566;SDS011;8901;52.088;5.084;2022-08-03T10:34:53;17.75;;;8.20;;
17566;SDS011;8901;52.088;5.084;2022-08-03T10:37:29;19.10;;;8.35;;
17566;SDS011;8901;52.088;5.084;2022-08-03T10:39:57;16.88;;;7.78;;
17566;SDS011;8901;52.088;5.084;2022-08-03T10:42:28;14.88;;;8.70;;
17566;SDS011;8901;52.088;5.084;2022-08-03T10:45:02;14.07;;;8.02;;
17566;SDS011;8901;52.088;5.084;2022-08-03T10:47:31;11.48;;;8.02;;
17566;SDS011;8901;52.088;5.084;2022-08-03T10:49:59;11.63;;;8.60;;
17566;SDS011;8901;52.088;5.084;2022-08-03T10:52:26;13.45;;;8.70;;
17566;SDS011;8901;52.088;5.084;2022-08-03T10:54:53;14.18;;;8.88;;
17566;SDS011;8901;52.088;5.084;2022-08-03T10:57:41;11.57;;;8.63;;
17566;SDS011;8901;52.088;5.084;2022-08-03T11:00:14;13.43;;;9.25;;
17566;SDS011;8901;52.088;5.084;2022-08-03T11:05:33;11.68;;;10.23;;
17566;SDS011;8901;52.088;5.084;2022-08-03T11:08:18;13.20;;;8.70;;
17566;SDS011;8901;52.088;5.084;2022-08-03T11:10:56;13.43;;;9.43;;
17566;SDS011;8901;52.088;5.084;2022-08-03T11:13:26;12.63;;;10.50;;
17566;SDS011;8901;52.088;5.084;2022-08-03T11:15:58;20.95;;;11.02;;
17566;SDS011;8901;52.088;5.084;2022-08-03T11:18:29;13.68;;;10.68;;
17566;SDS011;8901;52.088;5.084;2022-08-03T11:20:56;14.32;;;10.35;;
17566;SDS011;8901;52.088;5.084;2022-08-03T11:26:16;13.18;;;11.93;;
17566;SDS011;8901;52.088;5.084;2022-08-03T11:28:44;14.48;;;10.90;;
17566;SDS011;8901;52.088;5.084;2022-08-03T11:34:14;13.98;;;10.65;;
17566;SDS011;8901;52.088;5.084;2022-08-03T11:39:44;11.93;;;10.25;;
17566;SDS011;8901;52.088;5.084;2022-08-03T11:45:05;13.88;;;12.57;;
17566;SDS011;8901;52.088;5.084;2022-08-03T11:47:35;13.07;;;10.77;;
17566;SDS011;8901;52.088;5.084;2022-08-03T11:50:04;15.43;;;12.65;;
17566;SDS011;8901;52.088;5.084;2022-08-03T11:52:39;14.00;;;12.68;;
17566;SDS011;8901;52.088;5.084;2022-08-03T11:55:11;12.27;;;10.38;;
17566;SDS011;8901;52.088;5.084;2022-08-03T11:57:40;13.65;;;12.13;;
17566;SDS011;8901;52.088;5.084;2022-08-03T12:00:26;11.85;;;10.55;;
17566;SDS011;8901;52.088;5.084;2022-08-03T12:03:00;13.55;;;12.25;;
17566;SDS011;8901;52.088;5.084;2022-08-03T12:05:39;14.07;;;12.65;;
17566;SDS011;8901;52.088;5.084;2022-08-03T12:08:07;13.32;;;11.93;;
17566;SDS011;8901;52.088;5.084;2022-08-03T12:10:36;14.32;;;12.63;;
17566;SDS011;8901;52.088;5.084;2022-08-03T12:13:06;14.45;;;12.50;;
17566;SDS011;8901;52.088;5.084;2022-08-03T12:15:35;15.57;;;12.02;;
17566;SDS011;8901;52.088;5.084;2022-08-03T12:18:13;15.68;;;14.15;;
17566;SDS011;8901;52.088;5.084;2022-08-03T12:20:41;17.00;;;15.20;;
17566;SDS011;8901;52.088;5.084;2022-08-03T12:23:08;15.23;;;13.73;;
17566;SDS011;8901;52.088;5.084;2022-08-03T12:25:36;17.17;;;14.38;;
17566;SDS011;8901;52.088;5.084;2022-08-03T12:28:05;14.48;;;12.93;;
17566;SDS011;8901;52.088;5.084;2022-08-03T12:30:37;15.77;;;14.32;;
17566;SDS011;8901;52.088;5.084;2022-08-03T12:33:16;16.27;;;14.65;;
17566;SDS011;8901;52.088;5.084;2022-08-03T12:35:46;13.02;;;11.75;;
17566;SDS011;8901;52.088;5.084;2022-08-03T12:38:18;16.95;;;15.07;;
17566;SDS011;8901;52.088;5.084;2022-08-03T12:40:54;16.27;;;14.60;;
17566;SDS011;8901;52.088;5.084;2022-08-03T12:43:22;15.25;;;13.90;;
17566;SDS011;8901;52.088;5.084;2022-08-03T12:45:48;14.63;;;13.20;;
17566;SDS011;8901;52.088;5.084;2022-08-03T12:48:17;14.90;;;13.48;;
17566;SDS011;8901;52.088;5.084;2022-08-03T12:50:43;16.25;;;14.88;;
17566;SDS011;8901;52.088;5.084;2022-08-03T12:53:10;16.15;;;14.32;;
17566;SDS011;8901;52.088;5.084;2022-08-03T12:55:40;15.63;;;14.20;;
17566;SDS011;8901;52.088;5.084;2022-08-03T12:58:07;15.60;;;14.00;;
17566;SDS011;8901;52.088;5.084;2022-08-03T13:00:36;15.82;;;14.32;;
17566;SDS011;8901;52.088;5.084;2022-08-03T13:03:05;14.05;;;12.73;;
17566;SDS011;8901;52.088;5.084;2022-08-03T13:05:43;15.15;;;13.75;;
17566;SDS011;8901;52.088;5.084;2022-08-03T13:08:16;13.55;;;12.40;;
17566;SDS011;8901;52.088;5.084;2022-08-03T13:10:44;15.13;;;13.65;;
17566;SDS011;8901;52.088;5.084;2022-08-03T13:13:11;15.88;;;14.38;;
17566;SDS011;8901;52.088;5.084;2022-08-03T13:15:39;16.02;;;14.38;;
17566;SDS011;8901;52.088;5.084;2022-08-03T13:18:06;16.70;;;15.30;;
17566;SDS011;8901;52.088;5.084;2022-08-03T13:20:33;16.65;;;15.18;;
17566;SDS011;8901;52.088;5.084;2022-08-03T13:23:02;16.85;;;15.10;;
17566;SDS011;8901;52.088;5.084;2022-08-03T13:25:29;15.27;;;13.88;;
17566;SDS011;8901;52.088;5.084;2022-08-03T13:27:55;13.32;;;12.02;;
17566;SDS011;8901;52.088;5.084;2022-08-03T13:30:22;14.15;;;12.82;;
17566;SDS011;8901;52.088;5.084;2022-08-03T13:32:49;12.90;;;11.77;;
17566;SDS011;8901;52.088;5.084;2022-08-03T13:35:16;13.73;;;12.43;;
17566;SDS011;8901;52.088;5.084;2022-08-03T13:37:43;13.55;;;12.35;;
17566;SDS011;8901;52.088;5.084;2022-08-03T13:40:11;15.30;;;13.98;;
17566;SDS011;8901;52.088;5.084;2022-08-03T13:42:38;15.23;;;13.80;;
17566;SDS011;8901;52.088;5.084;2022-08-03T13:45:05;12.63;;;11.35;;
17566;SDS011;8901;52.088;5.084;2022-08-03T13:47:33;14.90;;;13.55;;
17566;SDS011;8901;52.088;5.084;2022-08-03T13:50:00;14.13;;;13.13;;
17566;SDS011;8901;52.088;5.084;2022-08-03T13:52:29;15.80;;;14.18;;
17566;SDS011;8901;52.088;5.084;2022-08-03T13:54:56;16.13;;;14.80;;
17566;SDS011;8901;52.088;5.084;2022-08-03T13:57:25;15.15;;;13.85;;
17566;SDS011;8901;52.088;5.084;2022-08-03T13:59:52;18.70;;;16.83;;
17566;SDS011;8901;52.088;5.084;2022-08-03T14:02:19;17.17;;;15.80;;
17566;SDS011;8901;52.088;5.084;2022-08-03T14:04:45;17.60;;;16.05;;
17566;SDS011;8901;52.088;5.084;2022-08-03T14:07:12;22.23;;;16.17;;
17566;SDS011;8901;52.088;5.084;2022-08-03T14:09:39;15.48;;;14.38;;
17566;SDS011;8901;52.088;5.084;2022-08-03T14:12:06;15.48;;;14.25;;
17566;SDS011;8901;52.088;5.084;2022-08-03T14:14:37;14.57;;;13.48;;
17566;SDS011;8901;52.088;5.084;2022-08-03T14:17:04;16.23;;;14.40;;
17566;SDS011;8901;52.088;5.084;2022-08-03T14:19:31;15.55;;;14.25;;
17566;SDS011;8901;52.088;5.084;2022-08-03T14:21:58;16.50;;;14.93;;
17566;SDS011;8901;52.088;5.084;2022-08-03T14:24:24;16.05;;;14.85;;
17566;SDS011;8901;52.088;5.084;2022-08-03T14:26:51;16.38;;;14.93;;
17566;SDS011;8901;52.088;5.084;2022-08-03T14:29:18;15.60;;;14.18;;
17566;SDS011;8901;52.088;5.084;2022-08-03T14:31:47;14.32;;;13.25;;
17566;SDS011;8901;52.088;5.084;2022-08-03T14:34:14;15.55;;;14.35;;
17566;SDS011;8901;52.088;5.084;2022-08-03T14:36:41;16.38;;;15.10;;
17566;SDS011;8901;52.088;5.084;2022-08-03T14:39:08;16.23;;;14.82;;
17566;SDS011;8901;52.088;5.084;2022-08-03T14:41:37;15.30;;;14.10;;
17566;SDS011;8901;52.088;5.084;2022-08-03T14:44:04;16.70;;;15.18;;
17566;SDS011;8901;52.088;5.084;2022-08-03T14:46:31;17.77;;;16.15;;
17566;SDS011;8901;52.088;5.084;2022-08-03T14:48:59;16.67;;;15.50;;
17566;SDS011;8901;52.088;5.084;2022-08-03T14:51:26;17.52;;;14.73;;
17566;SDS011;8901;52.088;5.084;2022-08-03T14:53:53;15.88;;;14.40;;
17566;SDS011;8901;52.088;5.084;2022-08-03T14:56:20;15.27;;;13.90;;
17566;SDS011;8901;52.088;5.084;2022-08-03T14:58:47;16.40;;;14.65;;
17566;SDS011;8901;52.088;5.084;2022-08-03T15:01:14;16.77;;;15.50;;
17566;SDS011;8901;52.088;5.084;2022-08-03T15:03:41;16.30;;;14.93;;
17566;SDS011;8901;52.088;5.084;2022-08-03T15:06:09;16.38;;;14.95;;
17566;SDS011;8901;52.088;5.084;2022-08-03T15:08:36;16.77;;;15.25;;
17566;SDS011;8901;52.088;5.084;2022-08-03T15:11:03;17.13;;;15.82;;
17566;SDS011;8901;52.088;5.084;2022-08-03T15:13:29;18.00;;;16.45;;